sensor_id;sensor_type;location;lat;lon;timestamp;pressure;altitude;pressure_sealevel;temperature;humidity
21449;BME280;10885;52.830;13.788;2023-04-03T05:25:54;102767.41;;;-2.36;83.68
21449;BME280;10885;52.830;13.788;2023-04-03T05:31:16;102771.06;;;-2.34;82.91
21449;BME280;10885;52.830;13.788;2023-04-03T05:36:37;102769.41;;;-2.23;82.72
21449;BME280;10885;52.830;13.788;2023-04-03T05:42:01;102771.38;;;-2.09;82.32
21449;BME280;10885;52.830;13.788;2023-04-03T05:47:22;102763.47;;;-1.93;81.92
21449;BME280;10885;52.830;13.788;2023-04-03T05:52:45;102766.75;;;-1.76;81.97
21449;BME280;10885;52.830;13.788;2023-04-03T05:58:08;102766.78;;;-1.52;81.93
21449;BME280;10885;52.830;13.788;2023-04-03T06:03:30;102778.81;;;-1.20;81.69
21449;BME280;10885;52.830;13.788;2023-04-03T06:08:51;102775.19;;;-0.79;79.95
21449;BME280;10885;52.830;13.788;2023-04-03T06:14:13;102782.03;;;-0.41;78.88
21449;BME280;10885;52.830;13.788;2023-04-03T06:19:34;102788.75;;;0.03;76.79
21449;BME280;10885;52.830;13.788;2023-04-03T06:24:56;102790.03;;;0.50;74.03
21449;BME280;10885;52.830;13.788;2023-04-03T06:30:17;102796.28;;;0.85;69.52
21449;BME280;10885;52.830;13.788;2023-04-03T06:35:38;102806.66;;;1.32;66.12
21449;BME280;10885;52.830;13.788;2023-04-03T06:40:59;102802.56;;;1.73;64.00
21449;BME280;10885;52.830;13.788;2023-04-03T06:46:21;102806.81;;;2.19;61.14
21449;BME280;10885;52.830;13.788;2023-04-03T06:51:42;102816.41;;;2.76;59.46
21449;BME280;10885;52.830;13.788;2023-04-03T06:57:04;102815.25;;;3.36;56.71
21449;BME280;10885;52.830;13.788;2023-04-03T07:02:24;102826.91;;;3.55;55.60
21449;BME280;10885;52.830;13.788;2023-04-03T07:07:45;102829.00;;;4.01;53.07
21449;BME280;10885;52.830;13.788;2023-04-03T07:13:06;102830.66;;;4.36;53.07
21449;BME280;10885;52.830;13.788;2023-04-03T07:18:27;102840.56;;;4.85;51.50
21449;BME280;10885;52.830;13.788;2023-04-03T07:23:48;102843.94;;;5.14;50.89
21449;BME280;10885;52.830;13.788;2023-04-03T07:29:14;102844.66;;;5.58;48.50
21449;BME280;10885;52.830;13.788;2023-04-03T07:34:35;102842.59;;;6.07;47.39
21449;BME280;10885;52.830;13.788;2023-04-03T07:39:56;102846.81;;;6.23;46.63
21449;BME280;10885;52.830;13.788;2023-04-03T07:45:19;102848.03;;;7.36;44.80
21449;BME280;10885;52.830;13.788;2023-04-03T07:50:40;102857.28;;;10.05;38.39
21449;BME280;10885;52.830;13.788;2023-04-03T07:56:01;102856.06;;;12.26;32.50
21449;BME280;10885;52.830;13.788;2023-04-03T08:01:23;102857.94;;;10.75;33.56
21449;BME280;10885;52.830;13.788;2023-04-03T08:06:44;102856.03;;;8.53;37.87
21449;BME280;10885;52.830;13.788;2023-04-03T08:12:06;102864.09;;;7.35;40.97
21449;BME280;10885;52.830;13.788;2023-04-03T08:17:27;102853.91;;;7.35;40.21
21449;BME280;10885;52.830;13.788;2023-04-03T08:22:48;102859.88;;;7.51;39.96
21449;BME280;10885;52.830;13.788;2023-04-03T08:28:10;102860.19;;;7.70;41.41
21449;BME280;10885;52.830;13.788;2023-04-03T08:33:33;102850.84;;;9.91;37.09
21449;BME280;10885;52.830;13.788;2023-04-03T08:38:55;102853.91;;;9.18;35.37
21449;BME280;10885;52.830;13.788;2023-04-03T08:49:56;102841.81;;;7.25;39.09
21449;BME280;10885;52.830;13.788;2023-04-03T09:00:58;102843.22;;;6.99;38.61
21449;BME280;10885;52.830;13.788;2023-04-03T09:06:25;102848.72;;;6.79;39.39
21449;BME280;10885;52.830;13.788;2023-04-03T09:28:58;102837.47;;;7.65;38.23
21449;BME280;10885;52.830;13.788;2023-04-03T09:34:29;102839.22;;;7.82;37.42
21449;BME280;10885;52.830;13.788;2023-04-03T09:39:53;102838.34;;;8.06;37.09
21449;BME280;10885;52.830;13.788;2023-04-03T09:45:23;102848.75;;;7.10;38.16
21449;BME280;10885;52.830;13.788;2023-04-03T09:56:24;102826.84;;;6.96;39.56
21449;BME280;10885;52.830;13.788;2023-04-03T10:07:37;102818.63;;;6.44;40.26
21449;BME280;10885;52.830;13.788;2023-04-03T10:13:13;102827.19;;;6.45;40.34
21449;BME280;10885;52.830;13.788;2023-04-03T10:24:29;102819.25;;;6.34;41.76
21449;BME280;10885;52.830;13.788;2023-04-03T10:30:21;102817.69;;;6.28;42.81
21449;BME280;10885;52.830;13.788;2023-04-03T10:35:44;102812.34;;;6.72;42.15
21449;BME280;10885;52.830;13.788;2023-04-03T10:52:48;102819.03;;;7.51;40.13
21449;BME280;10885;52.830;13.788;2023-04-03T10:58:27;102801.47;;;6.66;40.19
21449;BME280;10885;52.830;13.788;2023-04-03T11:03:53;102797.44;;;6.52;41.75
21449;BME280;10885;52.830;13.788;2023-04-03T11:09:41;102798.22;;;6.83;40.09
21449;BME280;10885;52.830;13.788;2023-04-03T11:15:05;102774.91;;;6.48;41.67
21449;BME280;10885;52.830;13.788;2023-04-03T11:20:29;102771.94;;;6.52;42.55
21449;BME280;10885;52.830;13.788;2023-04-03T11:25:56;102771.84;;;7.64;41.34
21449;BME280;10885;52.830;13.788;2023-04-03T11:36:52;102759.28;;;8.07;38.57
21449;BME280;10885;52.830;13.788;2023-04-03T11:53:53;102761.34;;;7.04;41.10
21449;BME280;10885;52.830;13.788;2023-04-03T11:59:16;102761.78;;;6.68;42.90
21449;BME280;10885;52.830;13.788;2023-04-03T12:10:41;102757.91;;;7.04;42.39
21449;BME280;10885;52.830;13.788;2023-04-03T12:16:03;102755.56;;;7.14;41.34
21449;BME280;10885;52.830;13.788;2023-04-03T12:22:20;102755.94;;;7.01;40.92
21449;BME280;10885;52.830;13.788;2023-04-03T12:27:38;102761.59;;;6.35;43.24
21449;BME280;10885;52.830;13.788;2023-04-03T12:33:17;102764.66;;;6.16;44.53
21449;BME280;10885;52.830;13.788;2023-04-03T12:50:16;102759.09;;;5.21;49.00
21449;BME280;10885;52.830;13.788;2023-04-03T12:55:37;102744.19;;;5.24;49.11
21449;BME280;10885;52.830;13.788;2023-04-03T13:06:26;102742.41;;;5.53;49.47
21449;BME280;10885;52.830;13.788;2023-04-03T13:11:49;102742.25;;;6.21;48.00
21449;BME280;10885;52.830;13.788;2023-04-03T13:17:15;102735.50;;;6.76;47.12
21449;BME280;10885;52.830;13.788;2023-04-03T13:22:40;102727.97;;;7.59;44.04
21449;BME280;10885;52.830;13.788;2023-04-03T13:28:12;102716.09;;;7.60;43.82
21449;BME280;10885;52.830;13.788;2023-04-03T13:33:35;102717.28;;;7.05;42.69
21449;BME280;10885;52.830;13.788;2023-04-03T13:39:26;102718.84;;;6.48;44.24
21449;BME280;10885;52.830;13.788;2023-04-03T13:44:47;102710.06;;;6.22;45.89
21449;BME280;10885;52.830;13.788;2023-04-03T13:55:35;102715.56;;;5.41;48.53
21449;BME280;10885;52.830;13.788;2023-04-03T14:01:17;102715.72;;;5.20;48.93
21449;BME280;10885;52.830;13.788;2023-04-03T14:06:39;102726.28;;;5.15;50.06
21449;BME280;10885;52.830;13.788;2023-04-03T14:12:06;102714.31;;;5.07;50.35
21449;BME280;10885;52.830;13.788;2023-04-03T14:17:28;102705.59;;;5.05;50.64
21449;BME280;10885;52.830;13.788;2023-04-03T14:22:50;102709.00;;;5.20;49.82
21449;BME280;10885;52.830;13.788;2023-04-03T14:28:21;102713.28;;;5.35;50.07
21449;BME280;10885;52.830;13.788;2023-04-03T14:33:43;102709.75;;;5.42;49.73
21449;BME280;10885;52.830;13.788;2023-04-03T14:39:07;102706.44;;;5.20;49.69
21449;BME280;10885;52.830;13.788;2023-04-03T14:44:29;102695.78;;;5.15;51.10
21449;BME280;10885;52.830;13.788;2023-04-03T14:49:50;102683.69;;;6.21;48.82
21449;BME280;10885;52.830;13.788;2023-04-03T14:55:14;102676.34;;;7.28;44.64
21449;BME280;10885;52.830;13.788;2023-04-03T15:00:36;102668.63;;;7.44;43.68
21449;BME280;10885;52.830;13.788;2023-04-03T15:05:57;102686.66;;;7.05;44.19
21449;BME280;10885;52.830;13.788;2023-04-03T15:11:19;102689.50;;;6.36;45.41
21449;BME280;10885;52.830;13.788;2023-04-03T15:16:40;102685.84;;;6.02;46.83
21449;BME280;10885;52.830;13.788;2023-04-03T15:22:01;102690.50;;;5.67;47.90
21449;BME280;10885;52.830;13.788;2023-04-03T15:27:22;102689.06;;;5.39;48.34
21449;BME280;10885;52.830;13.788;2023-04-03T15:32:43;102685.81;;;5.10;49.20
21449;BME280;10885;52.830;13.788;2023-04-03T15:38:03;102685.34;;;5.21;48.93
21449;BME280;10885;52.830;13.788;2023-04-03T15:43:25;102674.91;;;5.11;49.28
21449;BME280;10885;52.830;13.788;2023-04-03T15:48:46;102675.66;;;5.10;49.58
21449;BME280;10885;52.830;13.788;2023-04-03T15:54:07;102679.25;;;5.12;48.40
21449;BME280;10885;52.830;13.788;2023-04-03T15:59:28;102679.06;;;5.17;48.41
21449;BME280;10885;52.830;13.788;2023-04-03T16:04:51;102681.88;;;4.97;50.21
21449;BME280;10885;52.830;13.788;2023-04-03T16:10:13;102681.28;;;4.70;51.35
21449;BME280;10885;52.830;13.788;2023-04-03T16:15:35;102685.88;;;4.51;52.48
21449;BME280;10885;52.830;13.788;2023-04-03T16:20:57;102694.44;;;4.37;52.84
21449;BME280;10885;52.830;13.788;2023-04-03T16:26:18;102694.84;;;4.11;52.51
21449;BME280;10885;52.830;13.788;2023-04-03T16:31:39;102696.84;;;3.99;53.01
21449;BME280;10885;52.830;13.788;2023-04-03T16:36:59;102693.59;;;3.93;54.31
21449;BME280;10885;52.830;13.788;2023-04-03T16:42:21;102695.25;;;3.93;53.55
21449;BME280;10885;52.830;13.788;2023-04-03T16:47:43;102702.84;;;3.93;54.00
21449;BME280;10885;52.830;13.788;2023-04-03T16:53:03;102701.22;;;3.79;54.93
21449;BME280;10885;52.830;13.788;2023-04-03T16:58:25;102698.69;;;3.86;55.01
21449;BME280;10885;52.830;13.788;2023-04-03T17:03:47;102689.25;;;3.85;54.41
21449;BME280;10885;52.830;13.788;2023-04-03T17:09:08;102688.16;;;3.76;54.79
21449;BME280;10885;52.830;13.788;2023-04-03T17:14:29;102694.38;;;3.78;55.50
21449;BME280;10885;52.830;13.788;2023-04-03T17:19:51;102698.88;;;3.59;56.37
21449;BME280;10885;52.830;13.788;2023-04-03T17:25:14;102690.72;;;3.54;57.04
21449;BME280;10885;52.830;13.788;2023-04-03T17:30:35;102694.31;;;3.42;57.18
21449;BME280;10885;52.830;13.788;2023-04-03T17:35:57;102697.75;;;3.28;57.59
21449;BME280;10885;52.830;13.788;2023-04-03T17:41:19;102690.84;;;3.27;58.09
21449;BME280;10885;52.830;13.788;2023-04-03T17:46:40;102696.28;;;3.23;58.25
21449;BME280;10885;52.830;13.788;2023-04-03T17:52:01;102699.72;;;3.16;59.24
21449;BME280;10885;52.830;13.788;2023-04-03T17:57:22;102710.91;;;3.11;60.07
21449;BME280;10885;52.830;13.788;2023-04-03T18:02:43;102705.13;;;3.12;61.11
21449;BME280;10885;52.830;13.788;2023-04-03T18:08:03;102694.03;;;2.97;62.45
21449;BME280;10885;52.830;13.788;2023-04-03T18:13:25;102709.03;;;2.89;62.82
21449;BME280;10885;52.830;13.788;2023-04-03T18:18:46;102704.47;;;2.86;63.65
21449;BME280;10885;52.830;13.788;2023-04-03T18:24:13;102711.19;;;2.86;64.53
21449;BME280;10885;52.830;13.788;2023-04-03T18:29:37;102716.25;;;2.86;64.06
21449;BME280;10885;52.830;13.788;2023-04-03T18:34:58;102711.72;;;2.83;63.81
21449;BME280;10885;52.830;13.788;2023-04-03T18:40:20;102714.25;;;2.83;63.78
21449;BME280;10885;52.830;13.788;2023-04-03T18:45:41;102715.69;;;2.81;63.79
21449;BME280;10885;52.830;13.788;2023-04-03T18:51:02;102712.91;;;2.65;62.79
21449;BME280;10885;52.830;13.788;2023-04-03T18:56:23;102729.78;;;2.45;62.83
21449;BME280;10885;52.830;13.788;2023-04-03T19:01:44;102723.19;;;2.32;63.36
21449;BME280;10885;52.830;13.788;2023-04-03T19:07:06;102716.94;;;2.16;63.61
21449;BME280;10885;52.830;13.788;2023-04-03T19:12:28;102707.63;;;2.02;63.92
21449;BME280;10885;52.830;13.788;2023-04-03T19:17:50;102712.06;;;1.90;64.41
21449;BME280;10885;52.830;13.788;2023-04-03T19:23:11;102703.50;;;1.83;64.67
21449;BME280;10885;52.830;13.788;2023-04-03T19:28:33;102705.38;;;1.71;65.19
21449;BME280;10885;52.830;13.788;2023-04-03T19:33:54;102700.09;;;1.62;65.03
21449;BME280;10885;52.830;13.788;2023-04-03T19:39:15;102698.56;;;1.57;64.71
21449;BME280;10885;52.830;13.788;2023-04-03T19:44:36;102698.00;;;1.52;63.93
21449;BME280;10885;52.830;13.788;2023-04-03T19:49:58;102700.06;;;1.42;63.80
21449;BME280;10885;52.830;13.788;2023-04-03T19:55:19;102700.19;;;1.36;63.90
21449;BME280;10885;52.830;13.788;2023-04-03T20:00:40;102702.47;;;1.28;63.95
21449;BME280;10885;52.830;13.788;2023-04-03T20:06:01;102706.41;;;1.26;64.03
21449;BME280;10885;52.830;13.788;2023-04-03T20:11:23;102711.19;;;1.17;64.43
21449;BME280;10885;52.830;13.788;2023-04-03T20:16:45;102705.84;;;1.08;64.65
21449;BME280;10885;52.830;13.788;2023-04-03T20:22:06;102712.13;;;1.05;65.15
21449;BME280;10885;52.830;13.788;2023-04-03T20:27:27;102714.06;;;1.00;64.89
21449;BME280;10885;52.830;13.788;2023-04-03T20:32:48;102712.34;;;0.93;64.96
21449;BME280;10885;52.830;13.788;2023-04-03T20:38:09;102710.66;;;0.87;64.62
21449;BME280;10885;52.830;13.788;2023-04-03T20:43:32;102713.59;;;0.77;64.83
21449;BME280;10885;52.830;13.788;2023-04-03T20:48:54;102708.28;;;0.68;64.89
21449;BME280;10885;52.830;13.788;2023-04-03T20:54:14;102700.00;;;0.56;65.11
21449;BME280;10885;52.830;13.788;2023-04-03T20:59:35;102711.19;;;0.46;65.49
21449;BME280;10885;52.830;13.788;2023-04-03T21:04:59;102697.28;;;0.29;66.23
21449;BME280;10885;52.830;13.788;2023-04-03T21:21:42;102710.78;;;0.04;66.77
21449;BME280;10885;52.830;13.788;2023-04-03T21:27:05;102708.22;;;-0.09;66.82
21449;BME280;10885;52.830;13.788;2023-04-03T21:32:26;102705.47;;;-0.23;67.99
21449;BME280;10885;52.830;13.788;2023-04-03T21:37:47;102706.34;;;-0.35;68.86
21449;BME280;10885;52.830;13.788;2023-04-03T22:24:48;102693.41;;;-0.94;71.68
21449;BME280;10885;52.830;13.788;2023-04-03T22:30:10;102697.59;;;-1.00;71.64
21449;BME280;10885;52.830;13.788;2023-04-03T22:35:31;102681.16;;;-1.04;72.51
21449;BME280;10885;52.830;13.788;2023-04-03T22:40:59;102689.09;;;-1.13;73.23
21449;BME280;10885;52.830;13.788;2023-04-03T22:46:20;102696.19;;;-1.16;72.99
21449;BME280;10885;52.830;13.788;2023-04-03T22:51:41;102684.59;;;-1.22;73.07
21449;BME280;10885;52.830;13.788;2023-04-03T22:57:02;102679.66;;;-1.27;73.30
21449;BME280;10885;52.830;13.788;2023-04-03T23:02:23;102682.28;;;-1.38;72.96
21449;BME280;10885;52.830;13.788;2023-04-03T23:07:44;102688.06;;;-1.45;73.71
21449;BME280;10885;52.830;13.788;2023-04-03T23:13:05;102688.69;;;-1.59;73.82
21449;BME280;10885;52.830;13.788;2023-04-03T23:18:27;102687.38;;;-1.68;74.29
21449;BME280;10885;52.830;13.788;2023-04-03T23:23:51;102698.25;;;-1.81;75.12
21449;BME280;10885;52.830;13.788;2023-04-03T23:29:12;102697.38;;;-1.87;75.69
21449;BME280;10885;52.830;13.788;2023-04-03T23:34:33;102699.25;;;-1.91;75.05
